# Tabular Observed and Forecast Hydrograph Information
#
# Location: Pit River - Montgomery Creek (PITC1)
#
# File Generation Time: 05/03/2026 at 07:39 AM PDT
# Data Interval: 1 Hour
#
# Most Recent Date & Time of Maximum Observed: 05/03/2026 at 07:00 AM PDT
# Maximum Observed Stage: 61.59 Feet
# Maximum Observed Flow: 5754 cfs
#
# Earliest Date & Time of Maximum Forecast: 05/04/2026 at 10:00 PM PDT
# Maximum Forecast Stage: 61.66 Feet
# Maximum Forecast Flow: 5864 cfs
#
# OBSERVED
#
# Date & Time (Local) Stage (Feet) Flow (cfs) Trend Observed Status
# ---------------------------------------------------------------------------------
04/28/2026 07 AM PDT 58.26 2048 Not Applicable
04/28/2026 08 AM PDT 58.24 2034 - Not Applicable
04/28/2026 09 AM PDT 57.14 1297 - Not Applicable
04/28/2026 10 AM PDT 56.40 909 - Not Applicable
04/28/2026 11 AM PDT 56.64 1029 + Not Applicable
04/28/2026 12 PM PDT 56.36 890 - Not Applicable
04/28/2026 01 PM PDT 56.75 1085 + Not Applicable
04/28/2026 02 PM PDT 56.36 890 - Not Applicable
04/28/2026 03 PM PDT 56.34 881 - Not Applicable
04/28/2026 04 PM PDT 56.73 1075 + Not Applicable
04/28/2026 05 PM PDT 56.71 1066 - Not Applicable
04/28/2026 06 PM PDT 56.70 1061 - Not Applicable
04/28/2026 07 PM PDT 58.07 1905 + Not Applicable
04/28/2026 08 PM PDT 57.02 1229 - Not Applicable
04/28/2026 09 PM PDT 58.02 1871 + Not Applicable
04/28/2026 10 PM PDT 58.45 2197 + Not Applicable
04/28/2026 11 PM PDT 57.93 1804 - Not Applicable
04/29/2026 12 AM PDT 58.52 2252 + Not Applicable
04/29/2026 01 AM PDT 59.66 3315 + Not Applicable
04/29/2026 02 AM PDT 59.82 3486 + Not Applicable
04/29/2026 03 AM PDT 59.13 2790 - Not Applicable
04/29/2026 04 AM PDT 58.85 2537 - Not Applicable
04/29/2026 05 AM PDT 59.29 2943 + Not Applicable
04/29/2026 06 AM PDT 59.68 3335 + Not Applicable
04/29/2026 07 AM PDT 59.94 3614 + Not Applicable
04/29/2026 08 AM PDT 59.29 2943 - Not Applicable
04/29/2026 09 AM PDT 58.02 1871 - Not Applicable
04/29/2026 10 AM PDT 56.43 923 - Not Applicable
04/29/2026 11 AM PDT 56.72 1071 + Not Applicable
04/29/2026 12 PM PDT 56.71 1066 - Not Applicable
04/29/2026 01 PM PDT 56.32 871 - Not Applicable
04/29/2026 02 PM PDT 56.33 876 + Not Applicable
04/29/2026 03 PM PDT 56.32 871 - Not Applicable
04/29/2026 04 PM PDT 56.66 1040 + Not Applicable
04/29/2026 05 PM PDT 57.71 1653 + Not Applicable
04/29/2026 06 PM PDT 58.72 2426 + Not Applicable
04/29/2026 07 PM PDT 59.06 2725 + Not Applicable
04/29/2026 08 PM PDT 59.38 3026 + Not Applicable
04/29/2026 09 PM PDT 59.57 3225 + Not Applicable
04/29/2026 10 PM PDT 59.45 3097 - Not Applicable
04/29/2026 11 PM PDT 59.70 3355 + Not Applicable
04/30/2026 12 AM PDT 59.95 3626 + Not Applicable
04/30/2026 01 AM PDT 60.00 3684 + Not Applicable
04/30/2026 02 AM PDT 60.25 3965 + Not Applicable
04/30/2026 03 AM PDT 60.48 4245 + Not Applicable
04/30/2026 04 AM PDT 60.77 4603 + Not Applicable
04/30/2026 05 AM PDT 61.04 4957 + Not Applicable
04/30/2026 06 AM PDT 61.27 5273 + Not Applicable
04/30/2026 07 AM PDT 61.35 5391 + Not Applicable
04/30/2026 08 AM PDT 58.51 2243 - Not Applicable
04/30/2026 09 AM PDT 57.77 1695 - Not Applicable
04/30/2026 10 AM PDT 56.43 923 - Not Applicable
04/30/2026 11 AM PDT 56.38 899 - Not Applicable
04/30/2026 12 PM PDT 56.75 1085 + Not Applicable
04/30/2026 01 PM PDT 56.37 895 - Not Applicable
04/30/2026 02 PM PDT 56.37 895 0 Not Applicable
04/30/2026 03 PM PDT 56.37 895 0 Not Applicable
04/30/2026 04 PM PDT 56.34 881 - Not Applicable
04/30/2026 05 PM PDT 56.34 881 0 Not Applicable
04/30/2026 06 PM PDT 56.70 1061 + Not Applicable
04/30/2026 07 PM PDT 58.23 2026 + Not Applicable
04/30/2026 08 PM PDT 58.47 2212 + Not Applicable
04/30/2026 09 PM PDT 58.64 2356 + Not Applicable
04/30/2026 10 PM PDT 58.81 2500 + Not Applicable
04/30/2026 11 PM PDT 59.05 2716 + Not Applicable
05/01/2026 12 AM PDT 59.29 2943 + Not Applicable
05/01/2026 01 AM PDT 59.34 2989 + Not Applicable
05/01/2026 02 AM PDT 59.57 3225 + Not Applicable
05/01/2026 03 AM PDT 59.76 3421 + Not Applicable
05/01/2026 04 AM PDT 59.99 3672 + Not Applicable
05/01/2026 05 AM PDT 60.36 4094 + Not Applicable
05/01/2026 06 AM PDT 60.97 4863 + Not Applicable
05/01/2026 07 AM PDT 61.14 5093 + Not Applicable
05/01/2026 08 AM PDT 58.80 2491 - Not Applicable
05/01/2026 09 AM PDT 57.07 1258 - Not Applicable
05/01/2026 10 AM PDT 56.73 1075 - Not Applicable
05/01/2026 11 AM PDT 56.69 1056 - Not Applicable
05/01/2026 12 PM PDT 56.68 1050 - Not Applicable
05/01/2026 01 PM PDT 56.65 1035 - Not Applicable
05/01/2026 02 PM PDT 56.38 899 - Not Applicable
05/01/2026 03 PM PDT 56.72 1071 + Not Applicable
05/01/2026 04 PM PDT 56.36 890 - Not Applicable
05/01/2026 05 PM PDT 56.36 890 0 Not Applicable
05/01/2026 06 PM PDT 57.00 1217 + Not Applicable
05/01/2026 07 PM PDT 58.69 2401 + Not Applicable
05/01/2026 08 PM PDT 59.02 2687 + Not Applicable
05/01/2026 09 PM PDT 59.22 2873 + Not Applicable
05/01/2026 10 PM PDT 59.44 3087 + Not Applicable
05/01/2026 11 PM PDT 59.50 3150 + Not Applicable
05/02/2026 12 AM PDT 59.75 3410 + Not Applicable
05/02/2026 01 AM PDT 60.13 3826 + Not Applicable
05/02/2026 02 AM PDT 60.40 4144 + Not Applicable
05/02/2026 03 AM PDT 60.63 4427 + Not Applicable
05/02/2026 04 AM PDT 60.88 4749 + Not Applicable
05/02/2026 05 AM PDT 61.13 5080 + Not Applicable
05/02/2026 06 AM PDT 61.40 5466 + Not Applicable
05/02/2026 07 AM PDT 61.57 5720 + Not Applicable
05/02/2026 08 AM PDT 58.66 2374 - Not Applicable
05/02/2026 09 AM PDT 56.94 1186 - Not Applicable
05/02/2026 10 AM PDT 56.40 909 - Not Applicable
05/02/2026 11 AM PDT 56.75 1085 + Not Applicable
05/02/2026 12 PM PDT 56.37 895 - Not Applicable
05/02/2026 01 PM PDT 56.61 1014 + Not Applicable
05/02/2026 02 PM PDT 56.73 1075 + Not Applicable
05/02/2026 03 PM PDT 56.67 1045 - Not Applicable
05/02/2026 04 PM PDT 56.72 1071 + Not Applicable
05/02/2026 05 PM PDT 56.68 1050 - Not Applicable
05/02/2026 06 PM PDT 58.21 2012 + Not Applicable
05/02/2026 07 PM PDT 58.77 2466 + Not Applicable
05/02/2026 08 PM PDT 58.96 2634 + Not Applicable
05/02/2026 09 PM PDT 59.15 2808 + Not Applicable
05/02/2026 10 PM PDT 59.39 3036 + Not Applicable
05/02/2026 11 PM PDT 59.62 3276 + Not Applicable
05/03/2026 12 AM PDT 59.84 3506 + Not Applicable
05/03/2026 01 AM PDT 60.12 3814 + Not Applicable
05/03/2026 02 AM PDT 60.41 4157 + Not Applicable
05/03/2026 03 AM PDT 60.69 4506 + Not Applicable
05/03/2026 04 AM PDT 60.98 4876 + Not Applicable
05/03/2026 05 AM PDT 61.28 5287 + Not Applicable
05/03/2026 06 AM PDT 61.59 5754 + Not Applicable
05/03/2026 07 AM PDT 61.59 5754 0 Not Applicable
#
# FORECAST
#
# Date & Time (Local) Stage (Feet) Flow (cfs) Trend Forecast Status
# ---------------------------------------------------------------------------------
05/03/2026 08 AM PDT 61.59 5754 Not Applicable
05/03/2026 09 AM PDT 61.59 5754 0 Not Applicable
05/03/2026 10 AM PDT 61.59 5754 0 Not Applicable
05/03/2026 11 AM PDT 61.58 5737 - Not Applicable
05/03/2026 12 PM PDT 61.59 5754 + Not Applicable
05/03/2026 01 PM PDT 61.59 5754 0 Not Applicable
05/03/2026 02 PM PDT 61.59 5754 0 Not Applicable
05/03/2026 03 PM PDT 61.59 5754 0 Not Applicable
05/03/2026 04 PM PDT 61.59 5754 0 Not Applicable
05/03/2026 05 PM PDT 61.59 5754 0 Not Applicable
05/03/2026 06 PM PDT 61.60 5771 + Not Applicable
05/03/2026 07 PM PDT 61.60 5771 0 Not Applicable
05/03/2026 08 PM PDT 61.60 5771 0 Not Applicable
05/03/2026 09 PM PDT 61.60 5771 0 Not Applicable
05/03/2026 10 PM PDT 61.60 5771 0 Not Applicable
05/03/2026 11 PM PDT 61.61 5786 + Not Applicable
05/04/2026 12 AM PDT 61.60 5771 - Not Applicable
05/04/2026 01 AM PDT 61.60 5771 0 Not Applicable
05/04/2026 02 AM PDT 61.60 5771 0 Not Applicable
05/04/2026 03 AM PDT 61.60 5771 0 Not Applicable
05/04/2026 04 AM PDT 61.60 5771 0 Not Applicable
05/04/2026 05 AM PDT 61.60 5771 0 Not Applicable
05/04/2026 06 AM PDT 61.59 5754 - Not Applicable
05/04/2026 07 AM PDT 61.59 5754 0 Not Applicable
05/04/2026 08 AM PDT 61.59 5754 0 Not Applicable
05/04/2026 09 AM PDT 61.59 5754 0 Not Applicable
05/04/2026 10 AM PDT 61.59 5754 0 Not Applicable
05/04/2026 11 AM PDT 61.59 5754 0 Not Applicable
05/04/2026 12 PM PDT 61.59 5754 0 Not Applicable
05/04/2026 01 PM PDT 61.59 5754 0 Not Applicable
05/04/2026 02 PM PDT 61.60 5771 + Not Applicable
05/04/2026 03 PM PDT 61.61 5786 + Not Applicable
05/04/2026 04 PM PDT 61.61 5786 0 Not Applicable
05/04/2026 05 PM PDT 61.62 5802 + Not Applicable
05/04/2026 06 PM PDT 61.62 5802 0 Not Applicable
05/04/2026 07 PM PDT 61.63 5817 + Not Applicable
05/04/2026 08 PM PDT 61.64 5833 + Not Applicable
05/04/2026 09 PM PDT 61.65 5849 + Not Applicable
05/04/2026 10 PM PDT 61.66 5864 + Not Applicable
05/04/2026 11 PM PDT 61.66 5864 0 Not Applicable
05/05/2026 12 AM PDT 61.66 5864 0 Not Applicable
05/05/2026 01 AM PDT 61.66 5864 0 Not Applicable
05/05/2026 02 AM PDT 61.65 5849 - Not Applicable
05/05/2026 03 AM PDT 61.65 5849 0 Not Applicable
05/05/2026 04 AM PDT 61.65 5849 0 Not Applicable
05/05/2026 05 AM PDT 61.64 5833 - Not Applicable
05/05/2026 06 AM PDT 61.64 5833 0 Not Applicable
05/05/2026 07 AM PDT 61.63 5817 - Not Applicable
05/05/2026 08 AM PDT 61.63 5817 0 Not Applicable
05/05/2026 09 AM PDT 61.62 5802 - Not Applicable
05/05/2026 10 AM PDT 61.62 5802 0 Not Applicable
05/05/2026 11 AM PDT 61.61 5786 - Not Applicable
05/05/2026 12 PM PDT 61.61 5786 0 Not Applicable
05/05/2026 01 PM PDT 61.60 5771 - Not Applicable
05/05/2026 02 PM PDT 61.60 5771 0 Not Applicable
05/05/2026 03 PM PDT 61.59 5754 - Not Applicable
05/05/2026 04 PM PDT 61.59 5754 0 Not Applicable
05/05/2026 05 PM PDT 61.58 5737 - Not Applicable
05/05/2026 06 PM PDT 61.58 5737 0 Not Applicable
05/05/2026 07 PM PDT 61.58 5737 0 Not Applicable
05/05/2026 08 PM PDT 61.57 5720 - Not Applicable
05/05/2026 09 PM PDT 61.57 5720 0 Not Applicable
05/05/2026 10 PM PDT 61.57 5720 0 Not Applicable
05/05/2026 11 PM PDT 61.56 5703 - Not Applicable
05/06/2026 12 AM PDT 61.56 5703 0 Not Applicable
05/06/2026 01 AM PDT 61.56 5703 0 Not Applicable
05/06/2026 02 AM PDT 61.56 5703 0 Not Applicable
05/06/2026 03 AM PDT 61.55 5686 - Not Applicable
05/06/2026 04 AM PDT 61.55 5686 0 Not Applicable
05/06/2026 05 AM PDT 61.55 5686 0 Not Applicable
05/06/2026 06 AM PDT 61.55 5686 0 Not Applicable
05/06/2026 07 AM PDT 61.55 5686 0 Not Applicable
05/06/2026 08 AM PDT 61.54 5669 - Not Applicable
05/06/2026 09 AM PDT 61.54 5669 0 Not Applicable
05/06/2026 10 AM PDT 61.54 5669 0 Not Applicable
05/06/2026 11 AM PDT 61.54 5669 0 Not Applicable
05/06/2026 12 PM PDT 61.54 5669 0 Not Applicable
05/06/2026 01 PM PDT 61.53 5652 - Not Applicable
05/06/2026 02 PM PDT 61.53 5652 0 Not Applicable
05/06/2026 03 PM PDT 61.53 5652 0 Not Applicable
05/06/2026 04 PM PDT 61.53 5652 0 Not Applicable
05/06/2026 05 PM PDT 61.53 5652 0 Not Applicable
05/06/2026 06 PM PDT 61.53 5652 0 Not Applicable
05/06/2026 07 PM PDT 61.52 5635 - Not Applicable
05/06/2026 08 PM PDT 61.52 5635 0 Not Applicable
05/06/2026 09 PM PDT 61.52 5635 0 Not Applicable
05/06/2026 10 PM PDT 61.52 5635 0 Not Applicable
05/06/2026 11 PM PDT 61.52 5635 0 Not Applicable
05/07/2026 12 AM PDT 61.52 5635 0 Not Applicable
05/07/2026 01 AM PDT 61.52 5635 0 Not Applicable
05/07/2026 02 AM PDT 61.51 5619 - Not Applicable
05/07/2026 03 AM PDT 61.51 5619 0 Not Applicable
05/07/2026 04 AM PDT 61.51 5619 0 Not Applicable
05/07/2026 05 AM PDT 61.51 5619 0 Not Applicable
05/07/2026 06 AM PDT 61.51 5619 0 Not Applicable
05/07/2026 07 AM PDT 61.51 5619 0 Not Applicable
05/07/2026 08 AM PDT 61.50 5602 - Not Applicable
05/07/2026 09 AM PDT 61.50 5602 0 Not Applicable
05/07/2026 10 AM PDT 61.50 5602 0 Not Applicable
05/07/2026 11 AM PDT 61.50 5602 0 Not Applicable
05/07/2026 12 PM PDT 61.50 5602 0 Not Applicable
05/07/2026 01 PM PDT 61.49 5588 - Not Applicable
05/07/2026 02 PM PDT 61.49 5588 0 Not Applicable
05/07/2026 03 PM PDT 61.49 5588 0 Not Applicable
05/07/2026 04 PM PDT 61.49 5588 0 Not Applicable
05/07/2026 05 PM PDT 61.49 5588 0 Not Applicable
05/07/2026 06 PM PDT 61.49 5588 0 Not Applicable
05/07/2026 07 PM PDT 61.49 5588 0 Not Applicable
05/07/2026 08 PM PDT 61.48 5575 - Not Applicable
05/07/2026 09 PM PDT 61.48 5575 0 Not Applicable
05/07/2026 10 PM PDT 61.48 5575 0 Not Applicable
05/07/2026 11 PM PDT 61.48 5575 0 Not Applicable
05/08/2026 12 AM PDT 61.48 5575 0 Not Applicable
05/08/2026 01 AM PDT 61.48 5575 0 Not Applicable
05/08/2026 02 AM PDT 61.48 5575 0 Not Applicable
05/08/2026 03 AM PDT 61.47 5561 - Not Applicable
05/08/2026 04 AM PDT 61.47 5561 0 Not Applicable
05/08/2026 05 AM PDT 61.47 5561 0 Not Applicable
#
# NOTE 1: Stages are rounded to the nearest hundredth (.01) of a foot.
# NOTE 2: Flows are rounded to the nearest (1) cfs.
# NOTE 3: Trends are determined using hourly change in unrounded stage and flow.
# NOTE 4: Maximum Values are determined using unrounded stage and flow.
|